Time;durP1;ratioP1;P1;durP2;ratioP2;P2;SDS_P1;SDS_P2;PMS_P1;PMS_P2;Temp;Humidity;BMP_temperature;BMP_pressure;BME280_temperature;BME280_humidity;BME280_pressure;Samples;Min_cycle;Max_cycle;Signal;HPM_P1;HPM_P2
2023/06/30 00:01:50;;;;;;;2.35;1.00;;;;;;;12.35;80.82;100627.47;6150592;23;20403;-91
2023/06/30 00:04:17;;;;;;;4.28;1.20;;;;;;;12.28;79.98;100637.38;6150984;23;20048;-91
2023/06/30 00:06:50;;;;;;;4.30;1.83;;;;;;;12.25;79.88;100627.22;6150395;22;20009;-91
2023/06/30 00:09:19;;;;;;;7.20;1.77;;;;;;;12.31;80.18;100631.19;6150571;23;20009;-91
2023/06/30 00:11:46;;;;;;;5.53;1.27;;;;;;;12.23;80.84;100623.88;6150325;22;20428;-90
2023/06/30 00:14:11;;;;;;;9.77;1.77;;;;;;;12.12;81.38;100615.94;6150302;23;20005;-92
2023/06/30 00:16:36;;;;;;;4.35;1.42;;;;;;;12.08;81.54;100614.50;6253233;22;20009;-90
2023/06/30 00:19:02;;;;;;;3.90;1.65;;;;;;;12.06;81.12;100613.75;6253551;22;20451;-89
2023/06/30 00:21:27;;;;;;;5.93;1.52;;;;;;;12.12;81.16;100611.63;6253525;22;20088;-92
2023/06/30 00:23:52;;;;;;;3.10;1.10;;;;;;;12.06;81.58;100606.81;6151299;23;20379;-91
2023/06/30 00:26:18;;;;;;;4.00;1.15;;;;;;;12.08;81.95;100606.72;6150753;23;20013;-91
2023/06/30 00:28:43;;;;;;;5.15;1.60;;;;;;;11.98;82.84;100596.09;6252884;22;20413;-90
2023/06/30 00:31:08;;;;;;;7.15;1.65;;;;;;;11.90;84.11;100596.56;6253474;22;20079;-90
2023/06/30 00:33:35;;;;;;;5.78;1.40;;;;;;;11.83;85.49;100590.06;6151310;23;20009;-91
2023/06/30 00:36:00;;;;;;;6.38;1.92;;;;;;;11.79;85.91;100588.59;6150880;23;20563;-90
2023/06/30 00:38:26;;;;;;;4.85;1.35;;;;;;;11.69;85.56;100588.31;6150149;23;20033;-92
2023/06/30 00:40:51;;;;;;;2.80;1.10;;;;;;;11.69;85.46;100582.31;6150366;23;20082;-90
2023/06/30 00:43:16;;;;;;;5.53;1.40;;;;;;;11.72;84.40;100587.28;6150181;23;20028;-91
2023/06/30 00:45:42;;;;;;;4.30;1.50;;;;;;;11.75;83.86;100572.44;6150273;23;20058;-90
2023/06/30 00:48:07;;;;;;;3.38;1.17;;;;;;;11.66;84.52;100588.50;6150509;23;20051;-90
2023/06/30 00:50:33;;;;;;;3.58;1.20;;;;;;;11.57;85.07;100584.69;6150564;23;20059;-89
2023/06/30 00:52:59;;;;;;;5.93;1.50;;;;;;;11.48;85.12;100577.47;6150479;23;19997;-89
2023/06/30 00:55:25;;;;;;;4.78;1.63;;;;;;;11.44;85.68;100578.59;6150449;23;20000;-90
2023/06/30 00:57:51;;;;;;;3.83;1.30;;;;;;;11.47;85.82;100575.81;6253531;22;20009;-91
2023/06/30 01:00:17;;;;;;;5.72;1.70;;;;;;;11.39;86.21;100570.28;6253066;22;20040;-89
2023/06/30 01:03:01;;;;;;;5.57;1.63;;;;;;;11.35;87.02;100571.38;6150283;23;20008;-91
2023/06/30 01:05:36;;;;;;;2.00;1.38;;;;;;;11.37;86.35;100569.53;6252421;22;20009;-91
2023/06/30 01:08:20;;;;;;;5.10;1.38;;;;;;;11.38;85.46;100555.69;6150266;22;20037;-90
2023/06/30 01:10:46;;;;;;;10.93;2.22;;;;;;;11.46;85.62;100561.25;6150430;23;20028;-91
2023/06/30 01:13:13;;;;;;;6.45;1.40;;;;;;;11.34;86.28;100561.97;6150674;23;20036;-90
2023/06/30 01:15:43;;;;;;;3.63;1.33;;;;;;;11.30;86.93;100566.47;6150025;23;20453;-91
2023/06/30 01:18:11;;;;;;;4.55;1.40;;;;;;;11.26;88.28;100562.41;6253231;22;20006;-89
2023/06/30 01:20:40;;;;;;;5.75;1.58;;;;;;;11.21;88.33;100556.66;6150306;23;20005;-92
2023/06/30 01:23:33;;;;;;;3.58;1.35;;;;;;;11.21;88.97;100564.41;6150473;23;20006;-91
2023/06/30 01:25:59;;;;;;;4.13;1.63;;;;;;;11.27;88.40;100564.06;6150611;23;20263;-91
2023/06/30 01:28:27;;;;;;;3.40;1.20;;;;;;;11.27;88.77;100563.25;6150425;23;20002;-91
2023/06/30 01:30:54;;;;;;;4.60;1.35;;;;;;;11.26;88.84;100566.75;6150124;23;20001;-91
2023/06/30 01:33:20;;;;;;;7.68;1.40;;;;;;;11.19;89.96;100553.34;6150075;23;20002;-91
2023/06/30 01:35:47;;;;;;;4.55;1.42;;;;;;;11.12;90.87;100552.88;6147748;23;20077;-91
2023/06/30 01:38:12;;;;;;;4.22;1.55;;;;;;;11.17;90.83;100549.19;6149766;23;20463;-91
2023/06/30 01:40:38;;;;;;;2.67;1.40;;;;;;;11.09;91.91;100553.03;6149730;23;20001;-91
2023/06/30 01:43:04;;;;;;;4.82;1.48;;;;;;;11.17;91.66;100544.00;6150238;23;19997;-91
2023/06/30 01:45:31;;;;;;;6.90;1.80;;;;;;;11.13;92.56;100548.53;6150595;23;20020;-90
2023/06/30 01:47:57;;;;;;;4.85;1.30;;;;;;;11.16;92.14;100543.19;6150100;23;20033;-91
2023/06/30 01:50:23;;;;;;;3.22;1.33;;;;;;;11.07;93.66;100535.97;6149167;23;20411;-92
2023/06/30 01:52:49;;;;;;;10.07;1.63;;;;;;;11.10;94.60;100544.38;6150041;23;20047;-92
2023/06/30 01:55:15;;;;;;;6.55;1.85;;;;;;;11.16;95.34;100539.78;6149749;23;20002;-90
2023/06/30 01:57:41;;;;;;;6.75;1.67;;;;;;;11.19;96.00;100534.44;6252601;22;20436;-89
2023/06/30 02:00:07;;;;;;;3.05;1.80;;;;;;;11.18;97.32;100535.34;6149728;23;20009;-90
2023/06/30 02:02:32;;;;;;;3.95;1.50;;;;;;;11.12;97.52;100537.38;6252654;22;20384;-91
2023/06/30 02:04:58;;;;;;;4.28;2.10;;;;;;;11.23;97.48;100528.16;6150006;23;20024;-90
2023/06/30 02:07:23;;;;;;;4.80;2.10;;;;;;;11.34;97.79;100525.78;6149531;23;20037;-91
2023/06/30 02:09:49;;;;;;;3.15;1.33;;;;;;;11.46;98.96;100526.78;6149982;23;20001;-90
2023/06/30 02:12:15;;;;;;;6.00;1.55;;;;;;;11.50;100.00;100521.34;6149612;23;20005;-92
2023/06/30 02:14:41;;;;;;;6.15;1.88;;;;;;;11.64;99.90;100514.53;6252462;22;20029;-90
2023/06/30 02:17:08;;;;;;;5.32;1.60;;;;;;;11.69;98.97;100517.66;6152818;23;20004;-89
2023/06/30 02:19:34;;;;;;;5.03;1.38;;;;;;;11.69;99.32;100515.91;6162603;23;20379;-90
2023/06/30 02:21:59;;;;;;;5.68;1.25;;;;;;;11.70;100.00;100508.97;6161864;23;20005;-88
2023/06/30 02:24:24;;;;;;;3.67;1.33;;;;;;;11.72;100.00;100505.38;6162513;23;20001;-89
2023/06/30 02:26:50;;;;;;;6.43;1.75;;;;;;;11.77;100.00;100497.34;6162722;23;20076;-90
2023/06/30 02:29:15;;;;;;;3.85;1.60;;;;;;;11.83;100.00;100494.38;6160915;23;20013;-88
2023/06/30 02:31:41;;;;;;;12.18;1.85;;;;;;;11.91;100.00;100492.19;6161444;23;20096;-89
2023/06/30 02:34:06;;;;;;;7.15;1.98;;;;;;;11.94;100.00;100481.63;6161016;23;20006;-90
2023/06/30 02:36:31;;;;;;;7.38;1.95;;;;;;;12.09;100.00;100482.44;6155316;23;20080;-89
2023/06/30 02:38:57;;;;;;;4.78;1.85;;;;;;;12.01;100.00;100474.31;6262207;22;20062;-91
2023/06/30 02:41:23;;;;;;;4.72;1.95;;;;;;;12.06;100.00;100476.63;6263301;22;20012;-88
2023/06/30 02:43:48;;;;;;;4.15;1.60;;;;;;;12.09;100.00;100472.06;6160067;23;20012;-88
2023/06/30 02:46:14;;;;;;;6.05;1.55;;;;;;;12.10;100.00;100473.75;6160819;23;20006;-89
2023/06/30 02:48:39;;;;;;;4.55;1.60;;;;;;;12.10;100.00;100478.09;6159482;23;20006;-89
2023/06/30 02:51:05;;;;;;;5.30;1.50;;;;;;;12.13;100.00;100472.72;6261141;22;20020;-90
2023/06/30 02:53:30;;;;;;;4.97;1.83;;;;;;;12.19;100.00;100477.50;6155761;23;20026;-90
2023/06/30 02:55:55;;;;;;;3.60;1.40;;;;;;;12.20;100.00;100474.00;6157639;23;20001;-91
2023/06/30 02:58:22;;;;;;;4.80;1.52;;;;;;;12.20;100.00;100474.00;6154824;23;20032;-90
2023/06/30 03:00:49;;;;;;;6.47;1.80;;;;;;;12.19;100.00;100472.31;6157539;23;20031;-90
2023/06/30 03:03:14;;;;;;;5.32;1.58;;;;;;;12.17;100.00;100466.44;6158558;23;20002;-90
2023/06/30 03:05:39;;;;;;;4.88;1.35;;;;;;;12.19;100.00;100468.00;6156421;23;20005;-90
2023/06/30 03:08:05;;;;;;;4.70;1.48;;;;;;;12.15;100.00;100465.72;6259496;22;20396;-90
2023/06/30 03:10:30;;;;;;;9.18;1.77;;;;;;;12.18;100.00;100470.69;6156577;23;20021;-90
2023/06/30 03:12:56;;;;;;;4.50;1.77;;;;;;;12.13;100.00;100463.19;6152611;23;20005;-91
2023/06/30 03:15:21;;;;;;;3.22;1.42;;;;;;;12.17;100.00;100463.84;6254590;22;20053;-90
2023/06/30 03:17:47;;;;;;;8.73;2.05;;;;;;;12.19;100.00;100452.47;6151582;23;20008;-91
2023/06/30 03:20:12;;;;;;;5.55;1.90;;;;;;;12.24;100.00;100459.94;6151138;23;20229;-89
2023/06/30 03:22:41;;;;;;;4.80;2.00;;;;;;;12.31;100.00;100450.00;6150262;23;20119;-91
2023/06/30 03:25:08;;;;;;;4.95;1.80;;;;;;;12.28;100.00;100456.22;6151512;23;20332;-91
2023/06/30 03:27:34;;;;;;;3.00;1.23;;;;;;;12.34;100.00;100445.47;6150694;22;20005;-91
2023/06/30 03:30:02;;;;;;;2.97;1.33;;;;;;;12.38;100.00;100439.16;6254383;22;20416;-91
2023/06/30 03:32:27;;;;;;;7.82;1.80;;;;;;;12.33;100.00;100433.47;6150939;22;20332;-90
2023/06/30 03:34:53;;;;;;;9.02;1.85;;;;;;;12.40;100.00;100437.31;6151503;23;20006;-89
2023/06/30 03:37:18;;;;;;;2.85;1.25;;;;;;;12.39;100.00;100422.72;6150482;23;20039;-90
2023/06/30 03:39:44;;;;;;;7.60;1.90;;;;;;;12.37;100.00;100432.34;6254504;22;20001;-90
2023/06/30 03:42:10;;;;;;;4.18;1.60;;;;;;;12.39;100.00;100433.06;6253846;22;20340;-89
2023/06/30 03:44:35;;;;;;;8.00;1.55;;;;;;;12.38;100.00;100428.81;6254202;22;20002;-89
2023/06/30 03:47:01;;;;;;;4.18;1.05;;;;;;;12.35;100.00;100426.44;6150295;23;20002;-91
2023/06/30 03:49:26;;;;;;;4.68;1.30;;;;;;;12.36;100.00;100432.41;6151212;23;20005;-91
2023/06/30 03:51:51;;;;;;;7.80;1.58;;;;;;;12.38;100.00;100428.81;6253971;22;20009;-89
2023/06/30 03:54:17;;;;;;;6.25;1.27;;;;;;;12.41;100.00;100432.94;6151450;23;20029;-90
2023/06/30 03:56:42;;;;;;;6.03;1.13;;;;;;;12.46;100.00;100437.84;6151790;23;20013;-91
2023/06/30 03:59:09;;;;;;;3.53;1.38;;;;;;;12.43;100.00;100434.50;6151366;23;20081;-90
2023/06/30 04:01:35;;;;;;;4.85;1.17;;;;;;;12.42;100.00;100427.69;6150863;23;20006;-90
2023/06/30 04:04:01;;;;;;;2.25;1.08;;;;;;;12.39;100.00;100414.94;6150961;23;20012;-90
2023/06/30 04:06:27;;;;;;;2.95;1.10;;;;;;;12.32;100.00;100421.47;6151150;23;20012;-91
2023/06/30 04:08:53;;;;;;;3.70;1.48;;;;;;;12.37;100.00;100415.97;6151243;22;20038;-92
2023/06/30 04:11:18;;;;;;;9.10;1.60;;;;;;;12.38;100.00;100415.88;6253713;22;19997;-91
2023/06/30 04:13:43;;;;;;;4.78;1.63;;;;;;;12.28;100.00;100414.00;6151356;23;20001;-91
2023/06/30 04:16:09;;;;;;;7.57;1.88;;;;;;;12.27;100.00;100412.34;6253821;22;20495;-91
2023/06/30 04:18:34;;;;;;;4.68;1.63;;;;;;;12.29;100.00;100406.13;6253494;22;20001;-90
2023/06/30 04:21:00;;;;;;;7.70;1.58;;;;;;;12.26;100.00;100395.13;6150210;23;20010;-91
2023/06/30 04:23:25;;;;;;;7.20;2.03;;;;;;;12.26;100.00;100395.97;6150123;23;20019;-91
2023/06/30 04:25:50;;;;;;;6.82;1.60;;;;;;;12.33;100.00;100402.41;6150494;23;20010;-92
2023/06/30 04:28:16;;;;;;;7.32;1.77;;;;;;;12.30;100.00;100399.19;6151020;23;20002;-91
2023/06/30 04:30:42;;;;;;;4.50;1.50;;;;;;;12.26;100.00;100401.13;6150051;23;20230;-91
2023/06/30 04:33:07;;;;;;;5.07;2.03;;;;;;;12.31;100.00;100399.06;6150753;23;20132;-89
2023/06/30 04:35:32;;;;;;;5.80;1.65;;;;;;;12.38;100.00;100399.50;6150717;23;19997;-90
2023/06/30 04:37:58;;;;;;;5.28;1.42;;;;;;;12.38;100.00;100400.34;6150692;23;20013;-92
2023/06/30 04:40:23;;;;;;;7.95;2.00;;;;;;;12.39;100.00;100394.25;6150088;23;20081;-90
2023/06/30 04:42:49;;;;;;;4.57;1.10;;;;;;;12.33;100.00;100396.41;6150644;23;20006;-89
2023/06/30 04:45:14;;;;;;;6.90;1.40;;;;;;;12.47;100.00;100385.97;6150803;23;20010;-90
2023/06/30 04:47:40;;;;;;;2.00;1.20;;;;;;;12.53;100.00;100388.13;6253641;22;20009;-90
2023/06/30 04:50:05;;;;;;;11.15;1.80;;;;;;;12.62;98.76;100376.34;6252777;22;20017;-90
2023/06/30 04:52:31;;;;;;;7.45;1.70;;;;;;;12.61;97.14;100390.25;6150552;23;20340;-91
2023/06/30 04:54:57;;;;;;;5.40;1.23;;;;;;;12.63;97.41;100384.03;6150755;23;20010;-89
2023/06/30 04:57:22;;;;;;;9.43;1.95;;;;;;;12.61;97.25;100374.72;6150728;23;20027;-90
2023/06/30 04:59:51;;;;;;;6.25;1.50;;;;;;;12.59;97.08;100372.22;6150560;23;19997;-91
2023/06/30 05:02:17;;;;;;;12.27;1.50;;;;;;;12.67;96.44;100366.50;6150156;23;20002;-91
2023/06/30 05:04:42;;;;;;;7.30;1.67;;;;;;;12.73;96.13;100363.53;6150733;23;20364;-90
2023/06/30 05:07:09;;;;;;;4.28;1.17;;;;;;;12.74;95.65;100360.00;6150840;22;20482;-91
2023/06/30 05:09:35;;;;;;;8.10;1.33;;;;;;;12.85;95.35;100362.69;6150371;23;20001;-90
2023/06/30 05:12:00;;;;;;;8.20;1.20;;;;;;;12.92;94.46;100362.25;6149931;23;20024;-90
2023/06/30 05:14:25;;;;;;;5.97;1.40;;;;;;;12.91;94.95;100356.25;6253357;22;20006;-91
2023/06/30 05:16:51;;;;;;;6.57;1.52;;;;;;;12.98;93.80;100357.50;6150624;23;20056;-91
2023/06/30 05:19:16;;;;;;;8.32;1.20;;;;;;;12.93;93.67;100358.75;6150136;23;19998;-91
2023/06/30 05:21:42;;;;;;;4.60;1.27;;;;;;;13.01;92.91;100352.09;6149870;23;20017;-91
2023/06/30 05:24:07;;;;;;;7.07;1.42;;;;;;;13.02;92.86;100360.69;6150432;23;20071;-91
2023/06/30 05:26:32;;;;;;;6.40;1.15;;;;;;;12.96;92.77;100363.72;6150570;23;20375;-91
2023/06/30 05:28:58;;;;;;;10.80;2.05;;;;;;;12.93;92.51;100353.56;6253055;22;20009;-90
2023/06/30 05:31:23;;;;;;;6.18;1.38;;;;;;;12.92;93.35;100359.66;6149362;23;20489;-91
2023/06/30 05:33:49;;;;;;;6.30;1.67;;;;;;;12.98;92.95;100352.31;6253114;22;20016;-91
2023/06/30 05:36:14;;;;;;;7.85;1.30;;;;;;;12.90;93.13;100354.59;6150355;23;20056;-91
2023/06/30 05:38:39;;;;;;;5.53;1.33;;;;;;;12.94;93.21;100350.03;6252935;22;20010;-92
2023/06/30 05:41:05;;;;;;;7.28;1.10;;;;;;;13.09;91.91;100359.31;6149473;23;20048;-91
2023/06/30 05:43:30;;;;;;;6.97;1.90;;;;;;;13.07;91.82;100348.25;6149841;23;19998;-91
2023/06/30 05:45:56;;;;;;;5.50;1.25;;;;;;;13.10;91.70;100344.63;6150348;23;20006;-92
2023/06/30 05:48:21;;;;;;;5.95;1.30;;;;;;;13.22;90.75;100349.78;6150209;23;20340;-91
2023/06/30 05:50:46;;;;;;;8.50;2.17;;;;;;;13.24;90.66;100347.91;6150006;23;20084;-92
2023/06/30 05:53:12;;;;;;;5.07;1.52;;;;;;;13.23;90.74;100346.25;6151322;23;20033;-92
2023/06/30 05:55:37;;;;;;;9.90;1.60;;;;;;;13.22;90.25;100344.59;6254819;22;20080;-92
2023/06/30 05:58:02;;;;;;;8.43;1.77;;;;;;;13.19;91.17;100342.22;6254354;22;20001;-91
2023/06/30 06:00:28;;;;;;;7.30;1.40;;;;;;;13.24;91.15;100342.72;6150779;23;20002;-93
2023/06/30 06:02:54;;;;;;;5.93;1.77;;;;;;;13.27;91.13;100342.53;6151298;23;20009;-92
2023/06/30 06:05:20;;;;;;;6.75;1.50;;;;;;;13.26;89.97;100330.50;6151737;23;20128;-92
2023/06/30 06:07:45;;;;;;;9.07;1.20;;;;;;;13.25;90.36;100331.41;6151556;22;20096;-91
2023/06/30 06:10:11;;;;;;;10.63;1.60;;;;;;;13.25;90.26;100334.00;6151026;23;20005;-91
2023/06/30 06:12:39;;;;;;;7.13;1.10;;;;;;;13.30;90.78;100328.53;6151150;23;20530;-91
2023/06/30 06:15:05;;;;;;;5.78;1.20;;;;;;;13.31;89.56;100326.75;6151065;23;20001;-91
2023/06/30 06:17:31;;;;;;;4.95;1.20;;;;;;;13.35;90.17;100328.22;6150913;23;20006;-91
2023/06/30 06:19:57;;;;;;;4.00;1.10;;;;;;;13.46;89.08;100336.03;6151408;22;20373;-92
2023/06/30 06:22:23;;;;;;;5.55;1.48;;;;;;;13.48;88.61;100327.25;6147902;23;20009;-91
2023/06/30 06:24:48;;;;;;;8.65;1.92;;;;;;;13.51;87.70;100318.41;6149572;23;20428;-92
2023/06/30 06:27:14;;;;;;;4.85;1.40;;;;;;;13.53;88.50;100319.09;6149279;23;20028;-91
2023/06/30 06:29:39;;;;;;;8.40;1.90;;;;;;;13.51;88.31;100321.00;6150854;23;19998;-91
2023/06/30 06:32:05;;;;;;;4.15;1.40;;;;;;;13.60;88.98;100322.91;6254384;22;20006;-91
2023/06/30 06:34:30;;;;;;;7.68;1.40;;;;;;;13.68;88.16;100319.78;6151138;23;20174;-92
2023/06/30 06:36:56;;;;;;;8.68;1.65;;;;;;;13.78;87.68;100322.56;6253406;22;20211;-92
2023/06/30 06:39:21;;;;;;;10.65;2.28;;;;;;;13.89;87.31;100314.78;6254314;22;20084;-92
2023/06/30 06:41:47;;;;;;;5.25;1.35;;;;;;;14.08;86.93;100311.69;6151629;23;20014;-94
2023/06/30 06:44:12;;;;;;;5.40;1.38;;;;;;;14.23;86.38;100318.31;6255041;22;20444;-94
2023/06/30 06:46:38;;;;;;;5.68;1.67;;;;;;;14.29;86.21;100309.25;6255095;22;20061;-94
2023/06/30 06:49:03;;;;;;;6.07;1.85;;;;;;;14.35;83.80;100311.38;6255427;22;20008;-91
2023/06/30 06:51:28;;;;;;;10.88;1.80;;;;;;;14.22;85.16;100302.88;6150390;23;20001;-92
2023/06/30 06:53:54;;;;;;;16.02;1.75;;;;;;;14.37;86.26;100311.28;6151486;23;20012;-92
2023/06/30 06:56:20;;;;;;;6.55;1.55;;;;;;;14.38;87.25;100307.72;6150676;23;20028;-91
2023/06/30 06:58:45;;;;;;;10.57;1.70;;;;;;;14.10;88.55;100310.63;6150638;23;20005;-92
2023/06/30 07:01:11;;;;;;;10.65;1.70;;;;;;;14.16;90.52;100303.31;6150918;23;20006;-90
2023/06/30 07:03:37;;;;;;;7.85;1.40;;;;;;;13.98;91.61;100316.72;6150744;23;20424;-93
2023/06/30 07:06:03;;;;;;;8.27;1.88;;;;;;;14.13;91.99;100294.00;6150900;23;19997;-93
2023/06/30 07:08:28;;;;;;;4.68;1.60;;;;;;;14.08;92.24;100299.53;6150400;22;20006;-91
2023/06/30 07:10:56;;;;;;;10.88;2.92;;;;;;;14.06;90.96;100288.44;6254262;22;20001;-92
2023/06/30 07:13:22;;;;;;;8.05;1.60;;;;;;;14.28;90.11;100297.22;6150748;23;20012;-92
2023/06/30 07:15:48;;;;;;;14.32;1.67;;;;;;;14.23;91.78;100294.94;6148972;23;20002;-92
2023/06/30 07:18:17;;;;;;;7.43;1.58;;;;;;;14.26;89.65;100299.91;6149614;23;20010;-92
2023/06/30 07:20:47;;;;;;;8.35;1.90;;;;;;;14.35;89.19;100295.81;6150835;23;20010;-91
2023/06/30 07:23:13;;;;;;;8.07;1.48;;;;;;;14.32;88.50;100294.25;6149907;23;20009;-93
2023/06/30 07:25:38;;;;;;;6.57;1.50;;;;;;;14.42;86.95;100301.38;6150219;23;20473;-91
2023/06/30 07:28:04;;;;;;;7.97;1.80;;;;;;;14.40;87.33;100291.09;6151025;23;20006;-91
2023/06/30 07:30:29;;;;;;;8.98;2.08;;;;;;;14.45;87.68;100301.13;6151621;23;20006;-92
2023/06/30 07:32:55;;;;;;;8.80;1.80;;;;;;;14.53;86.92;100301.38;6151095;23;20454;-92
2023/06/30 07:35:22;;;;;;;11.15;2.13;;;;;;;14.31;87.34;100291.78;6151120;23;20009;-93
2023/06/30 07:37:48;;;;;;;7.72;1.65;;;;;;;14.45;87.01;100294.16;6150703;23;20036;-93
2023/06/30 07:40:15;;;;;;;17.42;2.00;;;;;;;14.48;87.69;100290.50;6253991;22;20056;-91
2023/06/30 07:42:41;;;;;;;5.10;1.15;;;;;;;14.49;88.63;100285.19;6150552;23;20063;-92
2023/06/30 07:45:12;;;;;;;12.82;1.77;;;;;;;14.49;89.10;100277.41;6253718;22;20324;-92
2023/06/30 07:47:42;;;;;;;10.45;2.33;;;;;;;14.39;89.10;100284.25;6151259;23;20005;-93
2023/06/30 07:50:12;;;;;;;9.50;1.80;;;;;;;14.45;89.14;100278.56;6252646;22;20006;-94
2023/06/30 07:52:43;;;;;;;8.88;1.67;;;;;;;14.45;89.52;100278.56;6252886;22;20016;-93
2023/06/30 07:55:18;;;;;;;11.98;2.38;;;;;;;14.46;88.79;100274.19;6254720;22;20037;-94
2023/06/30 07:57:45;;;;;;;8.38;1.80;;;;;;;14.49;88.62;100269.63;6255257;22;20082;-93
2023/06/30 08:00:15;;;;;;;11.75;1.77;;;;;;;14.40;90.30;100277.28;6253645;22;20063;-93
2023/06/30 08:02:44;;;;;;;10.38;2.05;;;;;;;14.47;89.63;100281.06;6256707;22;20441;-92
2023/06/30 08:05:10;;;;;;;14.63;2.45;;;;;;;14.41;90.59;100279.78;6252311;22;20012;-92
2023/06/30 08:07:35;;;;;;;10.35;2.20;;;;;;;14.33;92.23;100282.09;6149819;22;20025;-90
2023/06/30 08:10:01;;;;;;;11.32;2.38;;;;;;;14.45;92.54;100278.56;6150155;23;20076;-89
2023/06/30 08:12:26;;;;;;;11.75;1.90;;;;;;;14.44;92.84;100269.16;6150185;23;20005;-92
2023/06/30 08:14:52;;;;;;;7.30;1.80;;;;;;;14.59;92.92;100271.53;6253241;22;20041;-91
2023/06/30 08:17:18;;;;;;;7.40;1.90;;;;;;;14.63;92.18;100254.75;6253453;22;20321;-93
2023/06/30 08:19:43;;;;;;;19.02;2.92;;;;;;;14.69;90.79;100252.53;6150665;23;20008;-93
2023/06/30 08:22:09;;;;;;;11.73;2.13;;;;;;;14.71;91.38;100253.25;6252632;22;20017;-92
2023/06/30 08:24:35;;;;;;;7.43;1.73;;;;;;;14.82;90.98;100252.38;6149806;23;20012;-93
2023/06/30 08:27:00;;;;;;;11.27;3.00;;;;;;;14.97;89.99;100243.41;6150146;23;20076;-93
2023/06/30 08:29:26;;;;;;;11.95;1.83;;;;;;;14.91;89.09;100230.06;6253365;22;20481;-92
2023/06/30 08:31:52;;;;;;;11.10;2.17;;;;;;;14.92;89.86;100234.31;6149629;23;20006;-92
2023/06/30 08:34:17;;;;;;;11.68;2.28;;;;;;;15.11;88.95;100228.47;6150404;23;20001;-89
2023/06/30 08:36:43;;;;;;;7.18;1.95;;;;;;;15.43;88.07;100225.06;6252298;22;20331;-91
2023/06/30 08:39:08;;;;;;;12.68;2.10;;;;;;;15.33;87.17;100223.19;6150250;23;20005;-89
2023/06/30 08:41:37;;;;;;;11.52;2.38;;;;;;;15.27;88.29;100222.88;6151314;23;20092;-88
2023/06/30 08:44:03;;;;;;;8.48;2.17;;;;;;;15.55;87.80;100216.25;6151291;23;20036;-88
2023/06/30 08:46:29;;;;;;;9.55;1.75;;;;;;;15.72;87.36;100207.09;6150868;23;20004;-88
2023/06/30 08:48:55;;;;;;;7.80;2.25;;;;;;;15.60;87.50;100208.91;6150862;23;20002;-88
2023/06/30 08:51:21;;;;;;;16.33;3.15;;;;;;;15.58;88.25;100200.38;6149542;23;20008;-88
2023/06/30 08:53:48;;;;;;;11.70;2.10;;;;;;;15.72;87.79;100212.31;6150695;23;19994;-89
2023/06/30 08:56:17;;;;;;;12.88;2.35;;;;;;;15.88;87.75;100201.47;6151109;23;20006;-89
2023/06/30 08:58:42;;;;;;;8.90;2.05;;;;;;;15.52;89.22;100200.91;6150952;22;20166;-89
2023/06/30 09:01:09;;;;;;;12.20;2.42;;;;;;;15.84;88.56;100199.09;6150141;23;20382;-88
2023/06/30 09:03:36;;;;;;;14.25;2.90;;;;;;;15.90;87.08;100189.13;6150614;23;20502;-88
2023/06/30 09:06:01;;;;;;;10.05;2.85;;;;;;;15.80;88.00;100179.50;6150852;23;20001;-89
2023/06/30 09:08:35;;;;;;;11.07;1.88;;;;;;;15.70;89.98;100183.78;6150987;22;20006;-89
2023/06/30 09:11:04;;;;;;;8.68;2.00;;;;;;;15.93;89.19;100191.47;6150814;23;20039;-88
2023/06/30 09:13:31;;;;;;;8.93;1.83;;;;;;;16.14;88.01;100181.03;6150663;23;20012;-88
2023/06/30 09:15:58;;;;;;;10.90;2.03;;;;;;;16.35;87.53;100180.97;6151019;23;20106;-88
2023/06/30 09:18:24;;;;;;;9.52;2.20;;;;;;;16.15;88.04;100190.50;6150991;23;20420;-88
2023/06/30 09:20:50;;;;;;;8.35;2.33;;;;;;;16.01;90.42;100182.06;6150809;23;20060;-89
2023/06/30 09:23:17;;;;;;;14.45;2.42;;;;;;;16.14;88.36;100181.88;6150242;23;20081;-89
2023/06/30 09:25:42;;;;;;;6.50;2.13;;;;;;;16.35;87.84;100173.16;6150553;23;20005;-89
2023/06/30 09:28:14;;;;;;;9.10;2.20;;;;;;;16.41;85.51;100173.47;6150739;23;20012;-90
2023/06/30 09:30:43;;;;;;;;;;;;;;;16.38;85.74;100178.09;6151233;23;20002;-89
2023/06/30 09:33:08;;;;;;;6.55;1.95;;;;;;;16.58;83.29;100166.81;6150474;23;20022;-89
2023/06/30 09:35:38;;;;;;;8.57;1.80;;;;;;;16.69;81.96;100160.63;6150536;23;20366;-90
2023/06/30 09:38:09;;;;;;;5.97;1.95;;;;;;;16.81;79.50;100158.78;6149498;23;20033;-90
2023/06/30 09:40:35;;;;;;;7.32;2.25;;;;;;;17.00;79.27;100157.97;6150491;23;20062;-89
2023/06/30 09:43:00;;;;;;;6.68;2.25;;;;;;;16.99;78.61;100166.75;6150788;23;20021;-89
2023/06/30 09:45:25;;;;;;;6.13;2.13;;;;;;;16.93;78.29;100157.69;6150085;23;20424;-89
2023/06/30 09:47:54;;;;;;;10.02;2.00;;;;;;;16.96;79.02;100154.81;6150561;23;20063;-90
2023/06/30 09:50:27;;;;;;;13.13;2.03;;;;;;;17.11;78.12;100152.63;6150567;23;20002;-89
2023/06/30 09:52:53;;;;;;;5.78;2.42;;;;;;;16.90;78.45;100156.19;6150908;23;20055;-89
2023/06/30 09:55:18;;;;;;;9.82;2.00;;;;;;;16.69;81.48;100155.44;6150641;23;20024;-90
2023/06/30 09:57:45;;;;;;;5.50;1.70;;;;;;;16.80;80.71;100155.34;6150375;23;20033;-90
2023/06/30 10:00:16;;;;;;;12.90;2.15;;;;;;;16.65;81.21;100162.72;6150313;23;20089;-90
2023/06/30 10:02:43;;;;;;;6.38;2.05;;;;;;;16.86;81.25;100157.41;6149521;23;20001;-88
2023/06/30 10:05:09;;;;;;;4.65;1.27;;;;;;;16.99;79.91;100154.53;6150349;23;20081;-90
2023/06/30 10:07:35;;;;;;;5.18;1.60;;;;;;;17.10;80.21;100153.59;6150186;22;20009;-90
2023/06/30 10:10:02;;;;;;;5.47;1.80;;;;;;;16.95;80.67;100154.94;6150326;23;20382;-89
2023/06/30 10:12:30;;;;;;;6.00;1.83;;;;;;;16.45;83.63;100153.19;6150334;23;20456;-89
2023/06/30 10:14:56;;;;;;;6.93;1.73;;;;;;;16.80;83.33;100144.06;6150733;23;20084;-90
2023/06/30 10:17:21;;;;;;;6.72;1.85;;;;;;;16.99;82.42;100141.50;6149374;23;20076;-90
2023/06/30 10:19:47;;;;;;;7.22;1.85;;;;;;;16.78;83.85;100133.81;6149965;23;20323;-90
2023/06/30 10:22:12;;;;;;;14.50;3.08;;;;;;;17.08;83.38;100129.44;6150017;23;20005;-89
2023/06/30 10:24:41;;;;;;;4.35;1.50;;;;;;;17.38;82.21;100125.81;6150485;23;20006;-90
2023/06/30 10:27:09;;;;;;;9.45;2.30;;;;;;;17.25;82.49;100120.09;6150201;23;20002;-90
2023/06/30 10:29:35;;;;;;;6.90;1.42;;;;;;;17.09;84.17;100120.63;6150366;23;20008;-90
2023/06/30 10:32:01;;;;;;;5.30;1.60;;;;;;;17.38;83.52;100115.38;6149623;23;20006;-89
2023/06/30 10:34:28;;;;;;;6.30;1.60;;;;;;;17.31;84.21;100111.69;6149918;23;20009;-90
2023/06/30 10:36:54;;;;;;;5.78;1.85;;;;;;;16.96;84.78;100117.50;6253706;22;20016;-89
2023/06/30 10:39:19;;;;;;;5.05;1.75;;;;;;;16.82;85.54;100110.88;6151741;23;20382;-90
2023/06/30 10:41:49;;;;;;;6.88;1.77;;;;;;;16.77;86.82;100105.22;6151748;23;20005;-88
2023/06/30 10:44:18;;;;;;;5.82;1.52;;;;;;;16.72;87.86;100112.63;6151661;23;20080;-89
2023/06/30 10:46:51;;;;;;;6.38;1.45;;;;;;;16.80;88.19;100091.94;6150914;23;20005;-89
2023/06/30 10:49:32;;;;;;;6.53;1.70;;;;;;;16.93;87.27;100091.69;6254791;22;20367;-89
2023/06/30 10:52:02;;;;;;;3.83;1.25;;;;;;;17.24;86.15;100089.72;6151716;23;20013;-89
2023/06/30 10:54:38;;;;;;;6.47;2.13;;;;;;;17.60;84.11;100093.38;6151751;23;19997;-89
2023/06/30 10:57:18;;;;;;;5.13;1.33;;;;;;;17.92;81.97;100086.97;6151689;23;20058;-90
2023/06/30 10:59:45;;;;;;;4.68;1.83;;;;;;;17.63;83.30;100089.63;6151250;23;20008;-89
2023/06/30 11:02:21;;;;;;;3.83;1.30;;;;;;;17.92;82.19;100100.84;6152016;23;20009;-89
2023/06/30 11:04:48;;;;;;;4.35;1.23;;;;;;;18.05;81.16;100084.03;6151660;23;20116;-89
2023/06/30 11:07:17;;;;;;;4.30;1.20;;;;;;;17.92;79.42;100087.81;6254827;22;20306;-89
2023/06/30 11:09:48;;;;;;;3.83;1.33;;;;;;;17.95;80.82;100089.31;6151647;23;20340;-89
2023/06/30 11:12:15;;;;;;;4.15;1.20;;;;;;;17.58;82.78;100094.47;6151521;23;20009;-89
2023/06/30 11:15:03;;;;;;;4.80;0.90;;;;;;;17.60;83.39;100084.72;6151427;23;20006;-89
2023/06/30 11:17:47;;;;;;;3.33;1.35;;;;;;;17.57;83.73;100098.06;6151592;23;20009;-90
2023/06/30 11:20:13;;;;;;;2.75;1.10;;;;;;;17.59;83.49;100085.69;6151361;23;20436;-89